createdAt,value
2022-09-23T00:02:15.676Z,11.40
2022-09-23T00:05:04.076Z,11.30
2022-09-23T00:07:52.581Z,11.30
2022-09-23T00:10:41.442Z,11.30
2022-09-23T00:13:29.603Z,11.30
2022-09-23T00:16:22.026Z,11.30
2022-09-23T00:19:10.203Z,11.30
2022-09-23T00:21:58.355Z,11.30
2022-09-23T00:24:46.599Z,11.30
2022-09-23T00:27:35.089Z,11.40
2022-09-23T00:30:23.973Z,11.40
2022-09-23T00:33:13.815Z,11.40
2022-09-23T00:36:02.785Z,11.40
2022-09-23T00:38:50.968Z,11.50
2022-09-23T00:41:39.225Z,11.50
2022-09-23T00:44:45.434Z,11.50
2022-09-23T00:47:36.140Z,11.50
2022-09-23T00:50:31.129Z,11.50
2022-09-23T00:53:24.004Z,11.40
2022-09-23T00:56:14.434Z,11.30
2022-09-23T00:59:03.080Z,11.30
2022-09-23T01:01:54.706Z,11.30
2022-09-23T01:04:43.467Z,11.20
2022-09-23T01:07:32.959Z,11.20
2022-09-23T01:10:21.533Z,11.20
2022-09-23T01:13:16.644Z,11.10
2022-09-23T01:16:09.433Z,11.00
2022-09-23T01:19:06.226Z,11.00
2022-09-23T01:21:58.301Z,10.90
2022-09-23T01:25:05.944Z,10.90
2022-09-23T01:28:13.061Z,10.80
2022-09-23T01:31:06.510Z,10.70
2022-09-23T01:33:59.845Z,10.60
2022-09-23T01:36:52.395Z,10.60
2022-09-23T01:39:45.670Z,10.60
2022-09-23T01:42:39.467Z,10.50
2022-09-23T01:45:35.633Z,10.50
2022-09-23T01:48:30.927Z,10.50
2022-09-23T01:51:24.709Z,10.30
2022-09-23T01:54:16.924Z,10.20
2022-09-23T01:57:10.125Z,10.20
2022-09-23T02:00:04.426Z,10.00
2022-09-23T02:02:55.555Z,9.90
2022-09-23T02:05:47.759Z,9.90
2022-09-23T02:08:39.318Z,9.80
2022-09-23T02:11:27.801Z,9.70
2022-09-23T02:14:20.280Z,9.60
2022-09-23T02:17:13.855Z,9.60
2022-09-23T02:20:06.658Z,9.60
2022-09-23T02:23:03.909Z,9.50
2022-09-23T02:25:57.647Z,9.50
2022-09-23T02:28:52.586Z,9.40
2022-09-23T02:31:45.461Z,9.40
2022-09-23T02:34:46.113Z,9.30
2022-09-23T02:37:43.569Z,9.30
2022-09-23T02:40:39.009Z,9.20
2022-09-23T02:43:35.470Z,9.10
2022-09-23T02:46:24.553Z,9.10
2022-09-23T02:49:17.562Z,9.10
2022-09-23T02:52:07.707Z,9.10
2022-09-23T02:54:56.196Z,9.10
2022-09-23T02:57:46.950Z,9.00
2022-09-23T03:00:55.387Z,8.90
2022-09-23T03:03:48.161Z,8.80
2022-09-23T03:06:42.109Z,8.80
2022-09-23T03:09:34.965Z,8.70
2022-09-23T03:12:41.447Z,8.70
2022-09-23T03:15:37.351Z,8.60
2022-09-23T03:18:32.394Z,8.60
2022-09-23T03:21:26.162Z,8.50
2022-09-23T03:24:16.341Z,8.50
2022-09-23T03:27:08.304Z,8.50
2022-09-23T03:29:57.354Z,8.40
2022-09-23T03:32:48.067Z,8.30
2022-09-23T03:36:00.001Z,8.30
2022-09-23T03:38:52.814Z,8.20
2022-09-23T03:41:50.790Z,8.20
2022-09-23T03:44:39.383Z,8.20
2022-09-23T03:47:29.230Z,8.20
2022-09-23T03:50:19.156Z,8.20
2022-09-23T03:53:07.298Z,8.20
2022-09-23T03:55:55.454Z,8.20
2022-09-23T03:58:44.059Z,8.10
2022-09-23T04:01:32.489Z,8.10
2022-09-23T04:04:20.808Z,8.00
2022-09-23T04:07:11.262Z,8.00
2022-09-23T04:09:59.431Z,8.00
2022-09-23T04:12:47.629Z,8.00
2022-09-23T04:15:35.790Z,7.90
2022-09-23T04:18:24.317Z,7.90
2022-09-23T04:21:12.538Z,7.90
2022-09-23T04:24:02.679Z,7.80
2022-09-23T04:26:53.324Z,7.80
2022-09-23T04:29:41.463Z,7.80
2022-09-23T04:32:29.716Z,7.80
2022-09-23T04:35:17.974Z,7.80
2022-09-23T04:38:07.042Z,7.70
2022-09-23T04:40:56.750Z,7.70
2022-09-23T04:43:45.267Z,7.70
2022-09-23T04:46:33.494Z,7.70
2022-09-23T04:49:21.838Z,7.60
2022-09-23T04:52:09.981Z,7.60
2022-09-23T04:54:58.121Z,7.50
2022-09-23T04:57:47.558Z,7.60
2022-09-23T05:00:35.993Z,7.50
2022-09-23T05:03:24.887Z,7.50
2022-09-23T05:06:14.673Z,7.40
2022-09-23T05:09:04.901Z,7.40
2022-09-23T05:11:53.100Z,7.40
2022-09-23T05:14:42.802Z,7.40
2022-09-23T05:17:31.290Z,7.40
2022-09-23T05:20:19.556Z,7.40
2022-09-23T05:23:07.680Z,7.50
2022-09-23T05:26:02.301Z,7.40
2022-09-23T05:28:50.886Z,7.40
2022-09-23T05:31:40.402Z,7.50
2022-09-23T05:34:28.907Z,7.50
2022-09-23T05:37:17.057Z,7.60
2022-09-23T05:40:06.034Z,7.60
2022-09-23T05:42:54.245Z,7.60
2022-09-23T05:45:42.375Z,7.60
2022-09-23T05:48:32.624Z,7.60
2022-09-23T05:51:22.599Z,7.60
2022-09-23T05:54:10.899Z,7.70
2022-09-23T05:57:01.417Z,7.70
2022-09-23T05:59:52.474Z,7.70
2022-09-23T06:02:40.705Z,7.80
2022-09-23T06:05:31.018Z,7.80
2022-09-23T06:08:19.234Z,7.90
2022-09-23T06:11:09.110Z,8.00
2022-09-23T06:14:01.115Z,8.00
2022-09-23T06:16:49.433Z,8.10
2022-09-23T06:19:37.553Z,8.20
2022-09-23T06:22:27.107Z,8.30
2022-09-23T06:25:15.305Z,8.40
2022-09-23T06:28:03.859Z,8.40
2022-09-23T06:30:58.439Z,8.50
2022-09-23T06:33:47.337Z,8.60
2022-09-23T06:36:43.307Z,8.70
2022-09-23T06:39:33.803Z,8.80
2022-09-23T06:42:21.921Z,8.90
2022-09-23T06:45:14.994Z,8.90
2022-09-23T06:48:08.314Z,9.00
2022-09-23T06:51:02.411Z,9.10
2022-09-23T06:53:50.784Z,9.20
2022-09-23T06:56:40.554Z,9.30
2022-09-23T06:59:28.718Z,9.30
2022-09-23T07:02:17.017Z,9.40
2022-09-23T07:05:05.826Z,9.60
2022-09-23T07:07:54.649Z,9.70
2022-09-23T07:10:42.816Z,9.90
2022-09-23T07:13:33.521Z,10.00
2022-09-23T07:16:22.177Z,10.10
2022-09-23T07:19:12.155Z,10.10
2022-09-23T07:22:00.273Z,10.30
2022-09-23T07:24:48.642Z,10.30
2022-09-23T07:27:36.801Z,10.40
2022-09-23T07:30:26.551Z,10.50
2022-09-23T07:33:28.978Z,10.60
2022-09-23T07:36:20.699Z,10.70
2022-09-23T07:39:11.086Z,10.80
2022-09-23T07:41:59.770Z,10.90
2022-09-23T07:44:47.971Z,10.90
2022-09-23T07:47:39.334Z,11.00
2022-09-23T07:50:27.527Z,11.10
2022-09-23T07:53:15.790Z,11.20
2022-09-23T07:56:06.548Z,11.30
2022-09-23T07:59:00.999Z,11.50
2022-09-23T08:01:52.578Z,11.60
2022-09-23T08:04:42.289Z,11.70
2022-09-23T08:07:30.486Z,11.80
2022-09-23T08:10:21.146Z,11.90
2022-09-23T08:13:11.314Z,11.90
2022-09-23T08:15:59.723Z,12.10
2022-09-23T08:18:47.934Z,12.10
2022-09-23T08:21:39.351Z,12.20
2022-09-23T08:24:27.902Z,12.30
2022-09-23T08:27:16.202Z,12.40
2022-09-23T08:30:04.627Z,12.50
2022-09-23T08:32:52.970Z,12.60
2022-09-23T08:35:41.519Z,12.70
2022-09-23T08:38:31.297Z,12.90
2022-09-23T08:41:28.811Z,13.00
2022-09-23T08:44:20.983Z,13.10
2022-09-23T08:47:16.949Z,13.30
2022-09-23T08:50:09.215Z,13.50
2022-09-23T08:53:00.420Z,13.60
2022-09-23T08:55:53.765Z,13.70
2022-09-23T08:58:57.152Z,13.90
2022-09-23T09:01:47.431Z,14.00
2022-09-23T09:04:44.359Z,14.00
2022-09-23T09:07:37.347Z,14.00
2022-09-23T09:10:28.845Z,14.10
2022-09-23T09:13:32.702Z,14.10
2022-09-23T09:16:59.052Z,14.10
2022-09-23T09:19:55.314Z,14.20
2022-09-23T09:22:52.640Z,14.30
2022-09-23T09:25:46.432Z,14.40
2022-09-23T09:28:42.167Z,14.60
2022-09-23T09:31:33.729Z,14.70
2022-09-23T09:34:30.108Z,14.80
2022-09-23T09:37:25.777Z,14.90
2022-09-23T09:40:16.390Z,15.00
2022-09-23T09:43:05.495Z,15.10
2022-09-23T09:46:05.006Z,15.20
2022-09-23T09:48:59.762Z,15.40
2022-09-23T09:51:48.018Z,15.40
2022-09-23T09:54:36.132Z,15.50
2022-09-23T09:57:36.004Z,15.50
2022-09-23T10:00:39.207Z,15.70
2022-09-23T10:03:35.142Z,15.80
2022-09-23T10:06:25.987Z,15.90
2022-09-23T10:09:19.228Z,16.10
2022-09-23T10:12:15.506Z,16.30
2022-09-23T10:15:03.699Z,16.50
2022-09-23T10:17:52.418Z,16.60
2022-09-23T10:20:41.999Z,16.80
2022-09-23T10:23:33.464Z,17.00
2022-09-23T10:26:30.970Z,17.20
2022-09-23T10:29:25.981Z,17.20
2022-09-23T10:32:30.593Z,17.30
2022-09-23T10:35:22.557Z,17.30
2022-09-23T10:38:12.356Z,17.30
2022-09-23T10:41:18.332Z,17.30
2022-09-23T10:44:48.774Z,17.30
2022-09-23T10:47:45.032Z,17.50
2022-09-23T10:50:40.258Z,17.70
2022-09-23T10:53:42.099Z,17.80
2022-09-23T10:56:37.256Z,18.00
2022-09-23T10:59:49.757Z,18.20
2022-09-23T11:02:54.030Z,18.30
2022-09-23T11:05:49.396Z,18.50
2022-09-23T11:09:10.973Z,18.50
2022-09-23T11:12:11.566Z,18.70
2022-09-23T11:15:16.597Z,18.80
2022-09-23T11:18:20.952Z,18.90
2022-09-23T11:21:39.190Z,19.00
2022-09-23T11:24:50.151Z,19.00
2022-09-23T11:27:45.786Z,19.10
2022-09-23T11:30:43.495Z,19.20
2022-09-23T11:33:44.117Z,19.30
2022-09-23T11:36:37.543Z,19.40
2022-09-23T11:39:32.101Z,19.40
2022-09-23T11:42:27.095Z,19.50
2022-09-23T11:45:19.716Z,19.60
2022-09-23T11:48:14.656Z,19.50
2022-09-23T11:51:07.909Z,19.60
2022-09-23T11:54:00.808Z,19.70
2022-09-23T11:56:54.330Z,20.00
2022-09-23T12:03:06.036Z,19.90
2022-09-23T12:06:01.199Z,19.70
2022-09-23T12:08:52.886Z,19.70
2022-09-23T12:11:49.248Z,19.90
2022-09-23T12:14:50.213Z,19.90
2022-09-23T12:17:56.227Z,19.70
2022-09-23T12:20:58.158Z,19.60
2022-09-23T12:24:03.245Z,19.60
2022-09-23T12:26:56.186Z,19.60
2022-09-23T12:29:45.974Z,19.90
2022-09-23T12:32:34.672Z,20.10
2022-09-23T12:35:25.907Z,20.30
2022-09-23T12:38:17.961Z,20.20
2022-09-23T12:41:25.402Z,20.00
2022-09-23T12:44:36.656Z,19.80
2022-09-23T12:47:39.469Z,19.80
2022-09-23T12:50:47.588Z,19.90
2022-09-23T12:53:58.618Z,20.00
2022-09-23T12:57:01.192Z,19.90
2022-09-23T13:00:00.881Z,19.70
2022-09-23T13:03:16.028Z,19.70
2022-09-23T13:06:25.338Z,19.80
2022-09-23T13:09:20.107Z,19.80
2022-09-23T13:12:17.126Z,19.80
2022-09-23T13:15:14.341Z,19.80
2022-09-23T13:18:38.958Z,19.80
2022-09-23T13:22:09.069Z,19.90
2022-09-23T13:25:04.081Z,20.00
2022-09-23T13:27:55.406Z,20.20
2022-09-23T13:30:50.920Z,20.20
2022-09-23T13:33:43.839Z,20.20
2022-09-23T13:36:43.575Z,20.20
2022-09-23T13:39:33.028Z,20.20
2022-09-23T13:42:28.115Z,20.20
2022-09-23T13:45:19.064Z,20.30
2022-09-23T13:48:11.978Z,20.30
2022-09-23T13:51:05.928Z,20.30
2022-09-23T13:53:55.575Z,20.40
2022-09-23T13:56:49.929Z,20.50
2022-09-23T13:59:42.024Z,20.60
2022-09-23T14:02:30.221Z,20.70
2022-09-23T14:05:23.515Z,20.60
2022-09-23T14:08:12.715Z,20.60
2022-09-23T14:11:01.684Z,20.60
2022-09-23T14:13:55.023Z,20.80
2022-09-23T14:16:44.319Z,21.00
2022-09-23T14:19:33.985Z,21.10
2022-09-23T14:22:26.716Z,21.00
2022-09-23T14:25:17.203Z,20.90
2022-09-23T14:28:05.910Z,20.90
2022-09-23T14:30:58.452Z,20.70
2022-09-23T14:33:46.936Z,20.70
2022-09-23T14:36:55.030Z,20.70
2022-09-23T14:39:43.223Z,20.70
2022-09-23T14:42:38.403Z,20.90
2022-09-23T14:45:28.567Z,20.80
2022-09-23T14:48:20.381Z,20.90
2022-09-23T14:51:14.615Z,20.80
2022-09-23T14:54:33.434Z,20.60
2022-09-23T14:57:29.724Z,20.60
2022-09-23T15:00:20.164Z,20.60
2022-09-23T15:03:16.120Z,20.40
2022-09-23T15:06:09.212Z,20.30
2022-09-23T15:08:57.409Z,20.10
2022-09-23T15:11:45.533Z,20.10
2022-09-23T15:14:39.730Z,20.10
2022-09-23T15:17:33.919Z,20.10
2022-09-23T15:20:25.043Z,20.00
2022-09-23T15:23:36.787Z,19.90
2022-09-23T15:26:26.714Z,19.70
2022-09-23T15:29:14.887Z,19.60
2022-09-23T15:32:03.408Z,19.50
2022-09-23T15:34:52.231Z,19.40
2022-09-23T15:37:40.468Z,19.30
2022-09-23T15:40:32.107Z,19.20
2022-09-23T15:43:22.660Z,19.20
2022-09-23T15:46:19.214Z,19.10
2022-09-23T15:49:12.845Z,19.10
2022-09-23T15:52:02.105Z,19.10
2022-09-23T15:54:50.252Z,19.10
2022-09-23T15:57:39.755Z,19.20
2022-09-23T16:00:28.292Z,19.20
2022-09-23T16:03:16.450Z,19.20
2022-09-23T16:06:06.180Z,19.30
2022-09-23T16:08:54.354Z,19.20
2022-09-23T16:11:46.087Z,19.20
2022-09-23T16:14:35.594Z,19.10
2022-09-23T16:17:25.116Z,19.00
2022-09-23T16:20:16.857Z,19.00
2022-09-23T16:23:07.563Z,18.90
2022-09-23T16:25:57.134Z,18.90
2022-09-23T16:28:47.004Z,18.80
2022-09-23T16:31:36.928Z,18.70
2022-09-23T16:34:25.207Z,18.70
2022-09-23T16:37:15.898Z,18.60
2022-09-23T16:40:04.859Z,18.50
2022-09-23T16:42:54.542Z,18.50
2022-09-23T16:45:43.344Z,18.40
2022-09-23T16:48:32.864Z,18.30
2022-09-23T16:51:23.059Z,18.20
2022-09-23T16:54:13.641Z,18.10
2022-09-23T16:57:01.822Z,18.00
2022-09-23T17:00:07.668Z,18.00
2022-09-23T17:03:09.803Z,17.90
2022-09-23T17:06:01.510Z,17.70
2022-09-23T17:08:52.811Z,17.60
2022-09-23T17:11:41.367Z,17.60
2022-09-23T17:14:32.052Z,17.50
2022-09-23T17:17:20.279Z,17.40
2022-09-23T17:20:09.143Z,17.40
2022-09-23T17:22:58.653Z,17.30
2022-09-23T17:25:48.760Z,17.20
2022-09-23T17:28:37.166Z,17.10
2022-09-23T17:31:26.205Z,17.10
2022-09-23T17:34:14.637Z,17.00
2022-09-23T17:37:02.773Z,17.00
2022-09-23T17:39:52.279Z,16.90
2022-09-23T17:42:42.076Z,16.90
2022-09-23T17:45:30.334Z,16.80
2022-09-23T17:48:21.575Z,16.80
2022-09-23T17:51:12.794Z,16.70
2022-09-23T17:54:00.997Z,16.70
2022-09-23T17:56:50.455Z,16.70
2022-09-23T17:59:38.651Z,16.70
2022-09-23T18:02:26.852Z,16.60
2022-09-23T18:05:15.195Z,16.50
2022-09-23T18:08:06.024Z,16.50
2022-09-23T18:10:54.388Z,16.40
2022-09-23T18:13:44.278Z,16.40
2022-09-23T18:16:36.471Z,16.30
2022-09-23T18:19:25.665Z,16.30
2022-09-23T18:22:13.872Z,16.20
2022-09-23T18:25:13.093Z,16.10
2022-09-23T18:28:10.211Z,16.10
2022-09-23T18:31:00.622Z,16.10
2022-09-23T18:33:51.330Z,16.00
2022-09-23T18:36:39.614Z,15.90
2022-09-23T18:39:27.801Z,15.90
2022-09-23T18:42:15.964Z,15.90
2022-09-23T18:45:04.608Z,15.80
2022-09-23T18:48:11.545Z,15.70
2022-09-23T18:50:59.981Z,15.70
2022-09-23T18:53:49.399Z,15.70
2022-09-23T18:56:41.702Z,15.70
2022-09-23T18:59:33.474Z,15.70
2022-09-23T19:02:22.047Z,15.70
2022-09-23T19:05:12.852Z,15.70
2022-09-23T19:08:01.103Z,15.70
2022-09-23T19:10:56.424Z,15.70
2022-09-23T19:13:45.037Z,15.70
2022-09-23T19:16:33.324Z,15.70
2022-09-23T19:19:21.660Z,15.70
2022-09-23T19:22:11.172Z,15.60
2022-09-23T19:24:59.389Z,15.60
2022-09-23T19:27:48.608Z,15.60
2022-09-23T19:30:37.127Z,15.60
2022-09-23T19:33:25.634Z,15.60
2022-09-23T19:36:13.794Z,15.50
2022-09-23T19:39:07.937Z,15.50
2022-09-23T19:41:56.527Z,15.50
2022-09-23T19:44:44.673Z,15.50
2022-09-23T19:47:33.147Z,15.50
2022-09-23T19:50:21.531Z,15.40
2022-09-23T19:53:10.335Z,15.40
2022-09-23T19:56:03.294Z,15.40
2022-09-23T19:58:54.338Z,15.40
2022-09-23T20:01:42.518Z,15.30
2022-09-23T20:04:30.723Z,15.30
2022-09-23T20:07:19.264Z,15.30
2022-09-23T20:10:08.558Z,15.30
2022-09-23T20:12:59.414Z,15.30
2022-09-23T20:15:48.997Z,15.30
2022-09-23T20:18:37.847Z,15.40
2022-09-23T20:21:26.053Z,15.30
2022-09-23T20:24:14.200Z,15.30
2022-09-23T20:27:08.560Z,15.20
2022-09-23T20:29:58.258Z,15.20
2022-09-23T20:32:47.056Z,15.20
2022-09-23T20:35:35.214Z,15.20
2022-09-23T20:38:24.935Z,15.20
2022-09-23T20:41:13.594Z,15.20
2022-09-23T20:44:02.363Z,15.10
2022-09-23T20:46:51.985Z,15.10
2022-09-23T20:49:42.832Z,15.00
2022-09-23T20:52:31.144Z,15.10
2022-09-23T20:55:19.378Z,15.10
2022-09-23T20:58:07.625Z,15.00
2022-09-23T21:01:02.529Z,15.00
2022-09-23T21:03:53.766Z,15.00
2022-09-23T21:06:42.065Z,15.10
2022-09-23T21:09:31.898Z,15.00
2022-09-23T21:12:20.109Z,15.10
2022-09-23T21:15:13.503Z,15.00
2022-09-23T21:18:01.708Z,14.90
2022-09-23T21:20:58.228Z,15.00
2022-09-23T21:23:47.374Z,14.90
2022-09-23T21:26:35.779Z,14.80
2022-09-23T21:29:23.934Z,14.80
2022-09-23T21:32:12.072Z,14.80
2022-09-23T21:35:00.230Z,14.80
2022-09-23T21:37:49.746Z,14.80
2022-09-23T21:40:55.418Z,14.80
2022-09-23T21:43:43.632Z,14.70
2022-09-23T21:46:33.882Z,14.70
2022-09-23T21:49:22.099Z,14.60
2022-09-23T21:52:10.280Z,14.60
2022-09-23T21:54:59.810Z,14.60
2022-09-23T21:57:47.998Z,14.60
2022-09-23T22:00:36.258Z,14.60
2022-09-23T22:03:24.587Z,14.60
2022-09-23T22:06:15.422Z,14.50
2022-09-23T22:09:08.418Z,14.50
2022-09-23T22:12:08.615Z,14.40
2022-09-23T22:14:56.994Z,14.40
2022-09-23T22:17:46.069Z,14.30
2022-09-23T22:20:35.269Z,14.30
2022-09-23T22:23:23.463Z,14.20
2022-09-23T22:26:11.667Z,14.20
2022-09-23T22:29:19.054Z,14.20
2022-09-23T22:32:29.450Z,14.20
2022-09-23T22:35:18.683Z,14.10
2022-09-23T22:38:06.859Z,14.10
2022-09-23T22:40:55.168Z,14.10
2022-09-23T22:43:43.333Z,14.10
2022-09-23T22:46:35.418Z,14.10
2022-09-23T22:49:23.613Z,14.00
2022-09-23T22:52:12.416Z,14.00
2022-09-23T22:55:00.669Z,14.00
2022-09-23T22:57:51.532Z,14.10
2022-09-23T23:00:39.685Z,14.10
2022-09-23T23:03:30.516Z,14.10
2022-09-23T23:06:19.572Z,14.10
2022-09-23T23:09:09.707Z,14.10
2022-09-23T23:11:57.946Z,14.00
2022-09-23T23:14:46.224Z,14.00
2022-09-23T23:17:34.712Z,14.00
2022-09-23T23:20:24.193Z,13.90
2022-09-23T23:23:12.436Z,13.90
2022-09-23T23:26:09.809Z,13.90
2022-09-23T23:28:58.694Z,13.90
2022-09-23T23:31:47.343Z,13.80
2022-09-23T23:34:35.613Z,13.80
2022-09-23T23:37:25.111Z,13.80
2022-09-23T23:40:13.278Z,13.80
2022-09-23T23:43:02.062Z,13.80
2022-09-23T23:45:51.480Z,13.80
2022-09-23T23:48:41.067Z,13.90
2022-09-23T23:51:29.772Z,13.80
2022-09-23T23:54:19.270Z,13.80
2022-09-23T23:57:07.429Z,13.80
2022-09-23T23:59:55.585Z,13.80
